Time;durP1;ratioP1;P1;durP2;ratioP2;P2;SDS_P1;SDS_P2;PMS_P1;PMS_P2;Temp;Humidity;BMP_temperature;BMP_pressure;BME280_temperature;BME280_humidity;BME280_pressure;Samples;Min_cycle;Max_cycle;Signal;HPM_P1;HPM_P2
2022/11/06 00:02:24;;;;;;;;;;;19.00;72.10;;;;;;4479090;31;19980;-69
2022/11/06 00:04:50;;;;;;;;;;;19.00;72.10;;;;;;4493310;31;19966;-69
2022/11/06 00:07:15;;;;;;;;;;;19.00;72.10;;;;;;4493067;31;19984;-69
2022/11/06 00:09:41;;;;;;;;;;;19.00;72.10;;;;;;4493058;31;19974;-69
2022/11/06 00:12:06;;;;;;;;;;;18.90;72.10;;;;;;4493095;31;20001;-69
2022/11/06 00:14:33;;;;;;;;;;;18.90;72.00;;;;;;4493125;31;19981;-68
2022/11/06 00:16:59;;;;;;;;;;;18.90;72.00;;;;;;4493414;31;19982;-68
2022/11/06 00:19:24;;;;;;;;;;;18.90;72.10;;;;;;4493212;31;19996;-68
2022/11/06 00:21:50;;;;;;;;;;;18.90;72.10;;;;;;4493246;31;19976;-68
2022/11/06 00:24:16;;;;;;;;;;;18.90;72.10;;;;;;4493167;31;20311;-71
2022/11/06 00:26:42;;;;;;;;;;;18.90;72.20;;;;;;4493201;31;19973;-68
2022/11/06 00:29:11;;;;;;;;;;;18.90;72.10;;;;;;4493425;31;19989;-69
2022/11/06 00:31:37;;;;;;;;;;;18.90;72.20;;;;;;4493080;31;20017;-69
2022/11/06 00:34:03;;;;;;;;;;;18.90;72.20;;;;;;4492652;31;19976;-68
2022/11/06 00:36:29;;;;;;;;;;;18.90;72.20;;;;;;4493178;31;19989;-69
2022/11/06 00:38:55;;;;;;;;;;;18.90;72.10;;;;;;4492982;31;20012;-69
2022/11/06 00:41:22;;;;;;;;;;;18.80;72.10;;;;;;4493243;31;20026;-68
2022/11/06 00:43:48;;;;;;;;;;;18.80;72.10;;;;;;4493039;31;20380;-68
2022/11/06 00:46:14;;;;;;;;;;;18.80;72.10;;;;;;4492986;31;20401;-69
2022/11/06 00:48:40;;;;;;;;;;;18.80;72.20;;;;;;4492674;31;20027;-69
2022/11/06 00:51:07;;;;;;;;;;;18.80;72.20;;;;;;4492956;31;20388;-68
2022/11/06 00:53:33;;;;;;;;;;;18.80;72.10;;;;;;4492943;31;20055;-69
2022/11/06 00:56:10;;;;;;;;;;;18.80;72.20;;;;;;4478815;31;19988;-69
2022/11/06 00:58:36;;;;;;;;;;;18.80;72.20;;;;;;4492868;31;20430;-70
2022/11/06 01:01:09;;;;;;;;;;;18.80;72.10;;;;;;4493095;31;20050;-68
2022/11/06 01:03:34;;;;;;;;;;;18.70;72.10;;;;;;4492627;31;19984;-69
2022/11/06 01:06:04;;;;;;;;;;;18.80;72.10;;;;;;4492798;31;19970;-69
2022/11/06 01:08:30;;;;;;;;;;;18.70;72.10;;;;;;4492791;31;20088;-69
2022/11/06 01:10:56;;;;;;;;;;;18.70;72.10;;;;;;4492884;31;20055;-69
2022/11/06 01:13:22;;;;;;;;;;;18.70;72.10;;;;;;4492920;31;20391;-69
2022/11/06 01:15:47;;;;;;;;;;;18.70;72.10;;;;;;4493007;32;20414;-69
2022/11/06 01:18:13;;;;;;;;;;;18.70;72.10;;;;;;4492746;32;20398;-69
2022/11/06 01:20:39;;;;;;;;;;;18.70;72.10;;;;;;4492716;32;20475;-69
2022/11/06 01:23:04;;;;;;;;;;;18.60;72.00;;;;;;4492638;32;20005;-68
2022/11/06 01:25:30;;;;;;;;;;;18.60;72.10;;;;;;4492678;32;20383;-68
2022/11/06 01:27:56;;;;;;;;;;;18.70;72.10;;;;;;4492934;32;20386;-69
2022/11/06 01:30:21;;;;;;;;;;;18.70;72.10;;;;;;4492620;32;20116;-69
2022/11/06 01:32:47;;;;;;;;;;;18.70;72.10;;;;;;4492888;32;20358;-69
2022/11/06 01:35:13;;;;;;;;;;;18.70;72.10;;;;;;4478423;32;20020;-69
2022/11/06 01:37:38;;;;;;;;;;;18.70;72.10;;;;;;4492496;32;20087;-68
2022/11/06 01:40:04;;;;;;;;;;;18.60;72.00;;;;;;4492586;32;20114;-69
2022/11/06 01:42:30;;;;;;;;;;;18.60;72.00;;;;;;4492901;32;19985;-69
2022/11/06 01:45:04;;;;;;;;;;;18.60;72.00;;;;;;4480009;31;19977;-68
2022/11/06 01:47:29;;;;;;;;;;;18.60;72.10;;;;;;4495693;31;20472;-68
2022/11/06 01:49:57;;;;;;;;;;;18.60;72.90;;;;;;4495547;31;19977;-69
2022/11/06 01:52:23;;;;;;;;;;;18.60;72.00;;;;;;4495174;31;19969;-69
2022/11/06 01:54:51;;;;;;;;;;;18.60;72.00;;;;;;4495544;31;19992;-69
2022/11/06 01:57:17;;;;;;;;;;;18.60;72.00;;;;;;4495677;31;20146;-69
2022/11/06 01:59:44;;;;;;;;;;;18.60;72.00;;;;;;4495401;31;19970;-69
2022/11/06 02:02:10;;;;;;;;;;;18.50;72.00;;;;;;4495338;31;20103;-69
2022/11/06 02:04:43;;;;;;;;;;;18.60;72.00;;;;;;4495674;31;20389;-69
2022/11/06 02:07:08;;;;;;;;;;;18.50;71.90;;;;;;4495288;31;19977;-68
2022/11/06 02:09:34;;;;;;;;;;;18.60;72.00;;;;;;4495149;31;19961;-68
2022/11/06 02:12:18;;;;;;;;;;;18.50;71.90;;;;;;4495267;31;20372;-69
2022/11/06 02:14:49;;;;;;;;;;;18.50;71.90;;;;;;4495399;31;20012;-68
2022/11/06 02:17:30;;;;;;;;;;;18.50;72.00;;;;;;4495293;31;20082;-69
2022/11/06 02:20:14;;;;;;;;;;;18.50;71.90;;;;;;4495244;31;19977;-68
2022/11/06 02:22:52;;;;;;;;;;;18.50;72.00;;;;;;4495095;31;19985;-69
2022/11/06 02:25:18;;;;;;;;;;;18.50;72.00;;;;;;4495146;31;20399;-69
2022/11/06 02:27:53;;;;;;;;;;;18.50;72.00;;;;;;4494991;31;19966;-69
2022/11/06 02:30:18;;;;;;;;;;;18.40;71.90;;;;;;4494711;31;19970;-69
2022/11/06 02:32:47;;;;;;;;;;;18.40;71.90;;;;;;4494986;31;19988;-68
2022/11/06 02:35:19;;;;;;;;;;;18.40;71.90;;;;;;4494970;31;19973;-68
2022/11/06 02:37:45;;;;;;;;;;;18.50;72.00;;;;;;4494648;31;19980;-69
2022/11/06 02:40:13;;;;;;;;;;;18.40;71.90;;;;;;4494717;31;20495;-68
2022/11/06 02:42:41;;;;;;;;;;;18.50;72.00;;;;;;4494792;31;20054;-69
2022/11/06 02:45:08;;;;;;;;;;;18.40;71.90;;;;;;4494611;31;19985;-68
2022/11/06 02:47:34;;;;;;;;;;;18.40;71.90;;;;;;4494650;31;19974;-68
2022/11/06 02:50:03;;;;;;;;;;;18.40;71.90;;;;;;4494901;31;20079;-68
2022/11/06 02:52:49;;;;;;;;;;;18.40;71.90;;;;;;4480189;31;19977;-68
2022/11/06 02:55:23;;;;;;;;;;;18.40;71.90;;;;;;4493488;31;19985;-69
2022/11/06 02:57:53;;;;;;;;;;;18.40;71.90;;;;;;4494300;31;19977;-69
2022/11/06 03:00:20;;;;;;;;;;;18.40;71.90;;;;;;4494453;31;20411;-68
2022/11/06 03:03:15;;;;;;;;;;;18.40;72.00;;;;;;4494805;31;20021;-68
2022/11/06 03:06:01;;;;;;;;;;;18.40;72.00;;;;;;4483804;31;20318;-68
2022/11/06 03:08:34;;;;;;;;;;;18.40;71.90;;;;;;4494433;31;19985;-69
2022/11/06 03:11:05;;;;;;;;;;;18.40;72.00;;;;;;4494011;31;19988;-68
2022/11/06 03:13:46;;;;;;;;;;;18.30;71.90;;;;;;4494434;31;19989;-68
2022/11/06 03:16:14;;;;;;;;;;;18.30;71.90;;;;;;4494339;31;19965;-69
2022/11/06 03:18:44;;;;;;;;;;;18.40;72.00;;;;;;4494260;31;20107;-68
2022/11/06 03:21:36;;;;;;;;;;;18.40;71.90;;;;;;4494239;31;20095;-68
2022/11/06 03:24:10;;;;;;;;;;;18.30;71.90;;;;;;4475362;31;19974;-69
2022/11/06 03:26:37;;;;;;;;;;;18.30;72.00;;;;;;4494235;31;19992;-68
2022/11/06 03:29:09;;;;;;;;;;;18.30;71.90;;;;;;4479660;31;19981;-68
2022/11/06 03:31:39;;;;;;;;;;;18.30;72.00;;;;;;4494475;31;20017;-68
2022/11/06 03:34:07;;;;;;;;;;;18.30;72.00;;;;;;4494030;31;19978;-68
2022/11/06 03:36:35;;;;;;;;;;;18.30;71.90;;;;;;4494172;31;19993;-69
2022/11/06 03:39:03;;;;;;;;;;;18.30;72.00;;;;;;4493817;31;20112;-69
2022/11/06 03:41:32;;;;;;;;;;;18.30;72.00;;;;;;4494016;31;20103;-69
2022/11/06 03:44:00;;;;;;;;;;;18.30;72.00;;;;;;4479680;31;20013;-68
2022/11/06 03:46:27;;;;;;;;;;;18.20;72.00;;;;;;4493488;31;19969;-71
2022/11/06 03:48:58;;;;;;;;;;;18.20;71.90;;;;;;4493743;31;19985;-69
2022/11/06 03:51:44;;;;;;;;;;;18.30;72.00;;;;;;4493924;31;20394;-69
2022/11/06 03:54:15;;;;;;;;;;;18.20;71.90;;;;;;4485037;31;19970;-69
2022/11/06 03:56:44;;;;;;;;;;;18.20;72.00;;;;;;4493567;31;19992;-68
2022/11/06 03:59:12;;;;;;;;;;;18.30;72.00;;;;;;4493612;31;20434;-69
2022/11/06 04:01:41;;;;;;;;;;;18.30;72.00;;;;;;4493329;31;20021;-69
2022/11/06 04:04:30;;;;;;;;;;;18.20;71.90;;;;;;4493525;31;20327;-68
2022/11/06 04:07:01;;;;;;;;;;;18.20;71.90;;;;;;4486991;31;20024;-69
2022/11/06 04:14:58;;;;;;;;;;;18.20;71.90;;;;;;4493557;31;20009;-68
2022/11/06 04:17:27;;;;;;;;;;;18.20;71.90;;;;;;4478789;31;19981;-68
2022/11/06 04:19:56;;;;;;;;;;;18.20;71.80;;;;;;4492916;31;20091;-69
2022/11/06 04:22:24;;;;;;;;;;;18.20;71.90;;;;;;4493098;31;19977;-69
2022/11/06 04:27:54;;;;;;;;;;;18.20;72.70;;;;;;4493706;31;19966;-68
2022/11/06 04:30:20;;;;;;;;;;;18.20;71.90;;;;;;4492890;31;19981;-69
2022/11/06 04:32:49;;;;;;;;;;;18.20;71.90;;;;;;4493073;31;20050;-68
2022/11/06 04:35:39;;;;;;;;;;;18.20;71.90;;;;;;4492986;31;20449;-69
2022/11/06 04:38:08;;;;;;;;;;;18.20;71.90;;;;;;4493095;31;19985;-68
2022/11/06 04:40:49;;;;;;;;;;;18.10;71.90;;;;;;4478474;31;19982;-69
2022/11/06 04:43:29;;;;;;;;;;;18.20;71.90;;;;;;4493054;31;19970;-69
2022/11/06 04:45:55;;;;;;;;;;;18.20;71.80;;;;;;4492790;31;20186;-68
2022/11/06 04:48:21;;;;;;;;;;;18.10;71.80;;;;;;4493016;31;19969;-69
2022/11/06 04:50:49;;;;;;;;;;;18.10;71.90;;;;;;4492680;31;19989;-69
2022/11/06 04:53:15;;;;;;;;;;;18.10;71.90;;;;;;4492869;31;20395;-68
2022/11/06 04:55:48;;;;;;;;;;;18.10;71.90;;;;;;4492725;31;20029;-69
2022/11/06 04:58:14;;;;;;;;;;;18.10;71.90;;;;;;4492572;31;19991;-68
2022/11/06 05:00:42;;;;;;;;;;;18.10;72.70;;;;;;4492881;31;19973;-68
2022/11/06 05:03:08;;;;;;;;;;;18.10;71.90;;;;;;4492796;31;20009;-69
2022/11/06 05:05:34;;;;;;;;;;;18.10;71.90;;;;;;4492787;31;20095;-68
2022/11/06 05:07:59;;;;;;;;;;;18.10;71.80;;;;;;4492953;31;20355;-68
2022/11/06 05:10:25;;;;;;;;;;;18.10;71.80;;;;;;4492656;31;19976;-69
2022/11/06 05:12:50;;;;;;;;;;;18.10;71.90;;;;;;4478316;31;20021;-69
2022/11/06 05:15:16;;;;;;;;;;;18.10;71.90;;;;;;4492439;31;19966;-68
2022/11/06 05:17:42;;;;;;;;;;;18.00;71.80;;;;;;4492351;32;19977;-68
2022/11/06 05:20:07;;;;;;;;;;;18.00;71.80;;;;;;4497230;31;20012;-69
2022/11/06 05:25:18;;;;;;;;;;;18.00;71.80;;;;;;4498202;31;20005;-69
2022/11/06 05:27:44;;;;;;;;;;;18.00;71.80;;;;;;4497597;31;20307;-69
2022/11/06 05:30:09;;;;;;;;;;;18.10;71.90;;;;;;4497885;31;20091;-68
2022/11/06 05:32:35;;;;;;;;;;;18.00;71.80;;;;;;4497877;31;20123;-68
2022/11/06 05:35:01;;;;;;;;;;;18.00;71.80;;;;;;4497871;31;19966;-68
2022/11/06 05:37:27;;;;;;;;;;;18.10;71.90;;;;;;4497643;31;19981;-68
2022/11/06 05:39:52;;;;;;;;;;;18.00;71.80;;;;;;4483499;31;20296;-70
2022/11/06 05:42:18;;;;;;;;;;;18.00;71.90;;;;;;4497555;31;20427;-69
2022/11/06 05:44:44;;;;;;;;;;;18.00;71.80;;;;;;4497480;31;19966;-68
2022/11/06 05:47:09;;;;;;;;;;;18.00;71.80;;;;;;4497425;31;19976;-69
2022/11/06 05:49:35;;;;;;;;;;;18.00;71.90;;;;;;4497823;31;19965;-69
2022/11/06 05:52:05;;;;;;;;;;;18.00;71.80;;;;;;4497708;31;19989;-68
2022/11/06 05:54:33;;;;;;;;;;;18.00;71.80;;;;;;4497892;31;19977;-69
2022/11/06 05:56:59;;;;;;;;;;;18.00;71.90;;;;;;4497712;31;20365;-68
2022/11/06 05:59:25;;;;;;;;;;;18.00;71.90;;;;;;4497624;31;20280;-69
2022/11/06 06:01:51;;;;;;;;;;;18.00;71.80;;;;;;4497565;31;19986;-68
2022/11/06 06:04:17;;;;;;;;;;;18.00;71.80;;;;;;4497601;31;19972;-69
2022/11/06 06:06:43;;;;;;;;;;;18.00;71.90;;;;;;4497578;31;20027;-68
2022/11/06 06:09:08;;;;;;;;;;;18.00;71.80;;;;;;4483185;31;20082;-69
2022/11/06 06:11:35;;;;;;;;;;;18.00;71.80;;;;;;4497451;31;20051;-68
2022/11/06 06:14:00;;;;;;;;;;;18.00;71.90;;;;;;4497643;31;20067;-69
2022/11/06 06:16:26;;;;;;;;;;;17.90;71.80;;;;;;4497468;31;20303;-69
2022/11/06 06:18:52;;;;;;;;;;;18.00;71.90;;;;;;4497740;31;19974;-68
2022/11/06 06:21:17;;;;;;;;;;;17.90;71.80;;;;;;4497462;31;20405;-68
2022/11/06 06:23:43;;;;;;;;;;;17.90;71.80;;;;;;4497754;31;20110;-68
2022/11/06 06:26:09;;;;;;;;;;;17.90;71.80;;;;;;4483384;31;20323;-68
2022/11/06 06:28:34;;;;;;;;;;;17.90;71.80;;;;;;4497425;31;20334;-68
2022/11/06 06:31:04;;;;;;;;;;;17.90;71.80;;;;;;4495840;31;19996;-68
2022/11/06 06:33:30;;;;;;;;;;;17.90;71.80;;;;;;4494793;31;19981;-68
2022/11/06 06:35:56;;;;;;;;;;;17.90;71.90;;;;;;4494971;31;20055;-69
2022/11/06 06:38:21;;;;;;;;;;;17.90;71.80;;;;;;4494948;31;19981;-69
2022/11/06 06:40:47;;;;;;;;;;;17.90;71.90;;;;;;4494679;31;19974;-69
2022/11/06 06:43:13;;;;;;;;;;;17.90;71.80;;;;;;4494945;31;19982;-69
2022/11/06 06:45:38;;;;;;;;;;;17.90;71.80;;;;;;4494549;31;20092;-69
2022/11/06 06:48:04;;;;;;;;;;;17.80;71.80;;;;;;4494164;31;20538;-69
2022/11/06 06:50:31;;;;;;;;;;;17.90;71.90;;;;;;4494714;31;19969;-69
2022/11/06 06:52:57;;;;;;;;;;;17.80;71.80;;;;;;4494753;31;20055;-69
2022/11/06 06:55:23;;;;;;;;;;;17.80;71.80;;;;;;4494671;31;20375;-69
2022/11/06 06:57:54;;;;;;;;;;;17.80;71.80;;;;;;4494606;31;19994;-69
2022/11/06 07:00:20;;;;;;;;;;;17.90;71.90;;;;;;4495216;31;20402;-69
2022/11/06 07:02:46;;;;;;;;;;;17.80;71.80;;;;;;4494594;31;19996;-69
2022/11/06 07:05:12;;;;;;;;;;;17.80;71.80;;;;;;4494485;31;19965;-68
2022/11/06 07:07:37;;;;;;;;;;;17.90;71.80;;;;;;4494453;31;20012;-69
2022/11/06 07:10:03;;;;;;;;;;;17.80;71.80;;;;;;4494644;31;20402;-69
2022/11/06 07:12:29;;;;;;;;;;;17.90;71.90;;;;;;4494259;31;20442;-69
2022/11/06 07:14:55;;;;;;;;;;;17.80;71.80;;;;;;4494395;31;19980;-69
2022/11/06 07:17:20;;;;;;;;;;;17.80;71.80;;;;;;4494574;31;20481;-69
2022/11/06 07:19:46;;;;;;;;;;;17.80;71.80;;;;;;4494498;31;19981;-69
2022/11/06 07:22:11;;;;;;;;;;;17.80;71.80;;;;;;4494244;31;19965;-69
2022/11/06 07:24:38;;;;;;;;;;;17.80;71.80;;;;;;4494308;31;19957;-69
2022/11/06 07:27:04;;;;;;;;;;;17.80;71.80;;;;;;4494196;31;20051;-69
2022/11/06 07:29:29;;;;;;;;;;;17.80;71.80;;;;;;4493890;31;19978;-69
2022/11/06 07:31:55;;;;;;;;;;;17.80;71.80;;;;;;4493822;31;20210;-69
2022/11/06 07:34:21;;;;;;;;;;;17.80;71.80;;;;;;4493744;31;19984;-69
2022/11/06 07:36:46;;;;;;;;;;;17.80;71.80;;;;;;4493802;31;20106;-69
2022/11/06 07:39:12;;;;;;;;;;;17.80;71.80;;;;;;4493725;31;20429;-69
2022/11/06 07:41:38;;;;;;;;;;;17.80;71.80;;;;;;4478969;31;20044;-69
2022/11/06 07:44:04;;;;;;;;;;;17.80;71.80;;;;;;4493912;31;19983;-69
2022/11/06 07:46:29;;;;;;;;;;;17.80;71.80;;;;;;4493894;31;19966;-69
2022/11/06 07:48:55;;;;;;;;;;;17.80;71.90;;;;;;4493704;31;19978;-69
2022/11/06 07:51:21;;;;;;;;;;;17.80;71.80;;;;;;4493515;31;19977;-69
2022/11/06 07:53:46;;;;;;;;;;;17.80;71.80;;;;;;4493673;31;19962;-69
2022/11/06 07:56:12;;;;;;;;;;;17.80;71.80;;;;;;4479549;31;19981;-67
2022/11/06 07:58:38;;;;;;;;;;;17.80;71.80;;;;;;4466534;31;20005;-69
2022/11/06 08:01:04;;;;;;;;;;;17.80;71.80;;;;;;4493556;31;20025;-69
2022/11/06 08:03:30;;;;;;;;;;;17.80;71.80;;;;;;4493611;31;19977;-69
2022/11/06 08:05:57;;;;;;;;;;;17.80;71.80;;;;;;4493521;31;19981;-70
2022/11/06 08:08:22;;;;;;;;;;;17.70;71.80;;;;;;4493514;31;20399;-69
2022/11/06 08:10:50;;;;;;;;;;;17.70;71.80;;;;;;4493192;31;20009;-69
2022/11/06 08:13:16;;;;;;;;;;;17.70;71.80;;;;;;4493279;31;19974;-69
2022/11/06 08:15:42;;;;;;;;;;;17.70;71.80;;;;;;4493411;31;20034;-69
2022/11/06 08:18:08;;;;;;;;;;;17.70;71.70;;;;;;4493420;31;20017;-69
2022/11/06 08:20:35;;;;;;;;;;;17.70;71.80;;;;;;4493010;31;19973;-68
2022/11/06 08:23:02;;;;;;;;;;;17.70;71.80;;;;;;4493274;31;19991;-68
2022/11/06 08:25:28;;;;;;;;;;;17.70;71.50;;;;;;4493517;31;20303;-69
2022/11/06 08:27:55;;;;;;;;;;;17.70;71.00;;;;;;4493285;31;20104;-69
2022/11/06 08:30:20;;;;;;;;;;;17.70;71.10;;;;;;4493246;31;19974;-70
2022/11/06 08:32:46;;;;;;;;;;;17.70;71.20;;;;;;4493399;31;19976;-69
2022/11/06 08:35:12;;;;;;;;;;;17.70;71.40;;;;;;4493425;31;19977;-69
2022/11/06 08:37:37;;;;;;;;;;;17.80;71.80;;;;;;4492965;31;19982;-69
2022/11/06 08:40:03;;;;;;;;;;;17.80;72.10;;;;;;4492988;31;19965;-69
2022/11/06 08:42:29;;;;;;;;;;;17.80;72.10;;;;;;4492914;31;19973;-69
2022/11/06 08:44:55;;;;;;;;;;;17.90;72.20;;;;;;4493088;31;19977;-69
2022/11/06 08:47:20;;;;;;;;;;;17.90;71.90;;;;;;4493253;31;20062;-69
2022/11/06 08:49:46;;;;;;;;;;;18.00;71.50;;;;;;4492796;31;19981;-68
2022/11/06 08:52:12;;;;;;;;;;;18.10;71.30;;;;;;4492629;31;19973;-69
2022/11/06 08:54:37;;;;;;;;;;;18.20;71.00;;;;;;4492207;31;19966;-68
2022/11/06 08:57:03;;;;;;;;;;;18.30;70.70;;;;;;4492830;31;19981;-69
2022/11/06 08:59:28;;;;;;;;;;;18.40;70.50;;;;;;4492787;31;20072;-68
2022/11/06 09:01:55;;;;;;;;;;;18.60;70.20;;;;;;4492719;31;19976;-68
2022/11/06 09:04:22;;;;;;;;;;;18.70;69.80;;;;;;4492717;31;19992;-69
2022/11/06 09:06:48;;;;;;;;;;;18.90;69.40;;;;;;4492768;31;19993;-69
2022/11/06 09:09:13;;;;;;;;;;;19.00;69.20;;;;;;4492711;31;19985;-69
2022/11/06 09:11:39;;;;;;;;;;;19.20;68.90;;;;;;4492845;31;19962;-69
2022/11/06 09:14:05;;;;;;;;;;;19.20;68.60;;;;;;4492683;31;20491;-69
2022/11/06 09:16:30;;;;;;;;;;;19.30;68.30;;;;;;4492564;31;19977;-69
2022/11/06 09:18:56;;;;;;;;;;;19.40;68.10;;;;;;4492565;31;20306;-69
2022/11/06 09:21:22;;;;;;;;;;;19.50;67.90;;;;;;4492792;32;20119;-69
2022/11/06 09:23:48;;;;;;;;;;;19.60;67.60;;;;;;4492580;32;20577;-69
2022/11/06 09:26:15;;;;;;;;;;;19.60;67.50;;;;;;4492329;32;19977;-69
2022/11/06 09:28:41;;;;;;;;;;;19.70;67.40;;;;;;4492563;32;19988;-69
2022/11/06 09:31:07;;;;;;;;;;;19.70;67.30;;;;;;4492547;32;19982;-67
2022/11/06 09:33:33;;;;;;;;;;;19.80;67.20;;;;;;4492577;32;19982;-69
2022/11/06 09:35:58;;;;;;;;;;;19.80;67.00;;;;;;4492195;32;20366;-69
2022/11/06 09:38:24;;;;;;;;;;;19.90;67.00;;;;;;4492468;32;20280;-68
2022/11/06 09:40:57;;;;;;;;;;;19.90;66.80;;;;;;4492358;32;19962;-68
2022/11/06 09:43:27;;;;;;;;;;;19.90;66.80;;;;;;4492437;32;19984;-69
2022/11/06 09:45:53;;;;;;;;;;;20.00;66.60;;;;;;4492615;32;20099;-69
2022/11/06 09:48:22;;;;;;;;;;;20.00;66.50;;;;;;4492222;32;19977;-69
2022/11/06 09:50:50;;;;;;;;;;;20.00;66.50;;;;;;4492606;32;19988;-68
2022/11/06 09:53:19;;;;;;;;;;;20.00;66.40;;;;;;4492305;32;19981;-69
2022/11/06 09:55:45;;;;;;;;;;;20.10;66.40;;;;;;4492201;32;19989;-69
2022/11/06 09:58:17;;;;;;;;;;;20.10;66.40;;;;;;4492309;32;19985;-68
2022/11/06 10:00:43;;;;;;;;;;;20.10;66.30;;;;;;4492287;32;19982;-69
2022/11/06 10:03:14;;;;;;;;;;;20.20;66.30;;;;;;4492276;32;20328;-69
2022/11/06 10:05:41;;;;;;;;;;;20.20;66.20;;;;;;4494074;31;19978;-69
2022/11/06 10:08:15;;;;;;;;;;;20.20;66.20;;;;;;4495269;31;19973;-69
2022/11/06 10:11:00;;;;;;;;;;;20.20;66.10;;;;;;4494886;31;19992;-69
2022/11/06 10:13:26;;;;;;;;;;;20.30;66.20;;;;;;4495203;31;19984;-69
2022/11/06 10:15:57;;;;;;;;;;;20.30;66.10;;;;;;4495249;31;19979;-70
2022/11/06 10:18:28;;;;;;;;;;;20.30;66.10;;;;;;4495211;31;20028;-69
2022/11/06 10:20:58;;;;;;;;;;;20.30;66.10;;;;;;4495435;31;20102;-69
2022/11/06 10:23:42;;;;;;;;;;;20.30;66.20;;;;;;4495000;31;19984;-69
2022/11/06 10:26:13;;;;;;;;;;;20.40;66.20;;;;;;4495426;31;20031;-69
2022/11/06 10:29:01;;;;;;;;;;;20.40;66.20;;;;;;4494940;31;20025;-70
2022/11/06 10:31:45;;;;;;;;;;;20.40;66.20;;;;;;4495287;31;20041;-70
2022/11/06 10:34:10;;;;;;;;;;;20.50;66.20;;;;;;4480718;31;19969;-70
2022/11/06 10:36:40;;;;;;;;;;;20.50;66.20;;;;;;4494754;31;20421;-70
2022/11/06 10:39:11;;;;;;;;;;;20.50;66.10;;;;;;4495233;31;19974;-70
2022/11/06 10:41:38;;;;;;;;;;;20.60;66.20;;;;;;4494886;31;19969;-69
2022/11/06 10:44:03;;;;;;;;;;;20.60;66.10;;;;;;4494919;31;19985;-69
2022/11/06 10:46:29;;;;;;;;;;;20.60;66.10;;;;;;4480469;31;20350;-70
2022/11/06 10:48:57;;;;;;;;;;;20.60;66.10;;;;;;4494385;31;20269;-69
2022/11/06 10:51:43;;;;;;;;;;;20.60;66.10;;;;;;4494825;31;19973;-69
2022/11/06 10:54:08;;;;;;;;;;;20.60;66.10;;;;;;4485753;31;20159;-71
2022/11/06 10:56:57;;;;;;;;;;;20.70;66.10;;;;;;4494571;31;19966;-70
2022/11/06 10:59:23;;;;;;;;;;;20.70;66.10;;;;;;4494339;31;20008;-70
2022/11/06 11:01:49;;;;;;;;;;;20.70;66.10;;;;;;4494061;31;20368;-69
2022/11/06 11:04:14;;;;;;;;;;;20.70;66.00;;;;;;4494455;31;20046;-70
2022/11/06 11:06:41;;;;;;;;;;;20.70;66.00;;;;;;4494544;31;19989;-70
2022/11/06 11:09:26;;;;;;;;;;;20.70;66.00;;;;;;4494346;31;19970;-70
2022/11/06 11:11:52;;;;;;;;;;;20.80;66.00;;;;;;4479786;31;20120;-69
2022/11/06 11:14:23;;;;;;;;;;;20.80;65.90;;;;;;4494014;31;19979;-69
2022/11/06 11:16:48;;;;;;;;;;;20.80;65.90;;;;;;4493573;31;20391;-69
2022/11/06 11:19:33;;;;;;;;;;;20.80;66.00;;;;;;4494466;31;19978;-69
2022/11/06 11:22:00;;;;;;;;;;;20.70;66.00;;;;;;4494037;31;20013;-69
2022/11/06 11:24:26;;;;;;;;;;;20.70;66.10;;;;;;4494055;31;19984;-70
2022/11/06 11:26:53;;;;;;;;;;;20.60;66.20;;;;;;4493808;31;19973;-69
2022/11/06 11:29:19;;;;;;;;;;;20.60;66.40;;;;;;4494012;31;20076;-69
2022/11/06 11:31:48;;;;;;;;;;;20.50;66.60;;;;;;4493918;31;20092;-69
2022/11/06 11:34:16;;;;;;;;;;;20.50;66.80;;;;;;4493954;31;19978;-69
2022/11/06 11:36:50;;;;;;;;;;;20.40;67.00;;;;;;4493852;31;19992;-69
2022/11/06 11:39:16;;;;;;;;;;;20.30;67.20;;;;;;4494117;31;20120;-70
2022/11/06 11:41:42;;;;;;;;;;;20.20;67.40;;;;;;4493437;31;20031;-70
2022/11/06 11:44:11;;;;;;;;;;;20.20;67.60;;;;;;4479367;31;20131;-70
2022/11/06 11:46:47;;;;;;;;;;;20.20;67.80;;;;;;4493763;31;19974;-70
2022/11/06 11:49:30;;;;;;;;;;;20.20;67.80;;;;;;4493559;31;20008;-70
2022/11/06 11:51:57;;;;;;;;;;;20.20;67.70;;;;;;4494271;31;20028;-69
2022/11/06 11:54:27;;;;;;;;;;;20.30;67.60;;;;;;4493601;31;19969;-70
2022/11/06 11:56:57;;;;;;;;;;;20.40;67.50;;;;;;4493703;31;19977;-69
2022/11/06 11:59:22;;;;;;;;;;;20.40;67.20;;;;;;4493547;31;19989;-69
2022/11/06 12:01:48;;;;;;;;;;;20.50;67.00;;;;;;4493468;31;20028;-69
2022/11/06 12:04:18;;;;;;;;;;;20.60;66.90;;;;;;4493309;31;19966;-69
2022/11/06 12:06:49;;;;;;;;;;;20.60;66.80;;;;;;4493505;31;20000;-70
2022/11/06 12:09:15;;;;;;;;;;;20.70;66.70;;;;;;4493686;31;19966;-70
2022/11/06 12:11:41;;;;;;;;;;;20.80;66.60;;;;;;4493491;31;19973;-69
2022/11/06 12:14:16;;;;;;;;;;;20.80;66.50;;;;;;4493635;31;20609;-69
2022/11/06 12:16:43;;;;;;;;;;;20.90;66.50;;;;;;4493581;31;19977;-69
2022/11/06 12:19:09;;;;;;;;;;;20.90;66.40;;;;;;4493812;31;20079;-70
2022/11/06 12:21:37;;;;;;;;;;;20.90;66.30;;;;;;4493431;31;20099;-69
2022/11/06 12:24:11;;;;;;;;;;;21.00;66.40;;;;;;4492958;31;19985;-69
2022/11/06 12:26:46;;;;;;;;;;;21.00;67.10;;;;;;4493337;31;20167;-69
2022/11/06 12:29:12;;;;;;;;;;;21.00;66.20;;;;;;4492275;31;19965;-70
2022/11/06 12:31:38;;;;;;;;;;;21.00;66.30;;;;;;4478472;31;19984;-70
2022/11/06 12:34:06;;;;;;;;;;;21.00;66.20;;;;;;4492710;31;19962;-71
2022/11/06 12:36:38;;;;;;;;;;;21.00;66.30;;;;;;4492904;31;19977;-69
2022/11/06 12:39:09;;;;;;;;;;;21.00;66.20;;;;;;4493241;31;19978;-67
2022/11/06 12:41:37;;;;;;;;;;;21.10;66.20;;;;;;4492582;31;19981;-70
2022/11/06 12:44:08;;;;;;;;;;;21.10;66.30;;;;;;4492884;31;19977;-70
2022/11/06 12:46:47;;;;;;;;;;;21.10;66.20;;;;;;4492952;31;20391;-69
2022/11/06 12:49:31;;;;;;;;;;;21.10;66.20;;;;;;4492352;31;19989;-70
2022/11/06 12:52:06;;;;;;;;;;;21.10;66.20;;;;;;4492829;31;20314;-69
2022/11/06 12:54:56;;;;;;;;;;;21.10;66.20;;;;;;4478626;31;19977;-70
2022/11/06 12:57:27;;;;;;;;;;;21.20;66.20;;;;;;4493051;31;20054;-70
2022/11/06 13:00:12;;;;;;;;;;;21.20;66.10;;;;;;4478255;31;19978;-70
2022/11/06 13:03:02;;;;;;;;;;;21.20;66.10;;;;;;4492648;31;20104;-70
2022/11/06 13:05:46;;;;;;;;;;;21.20;66.10;;;;;;4492691;31;19977;-70
2022/11/06 13:08:28;;;;;;;;;;;21.20;66.10;;;;;;4492696;31;19987;-70
2022/11/06 13:11:06;;;;;;;;;;;21.20;66.00;;;;;;4492437;31;19987;-70
2022/11/06 13:13:58;;;;;;;;;;;21.20;66.80;;;;;;4492343;31;19981;-70
2022/11/06 13:16:42;;;;;;;;;;;21.30;66.00;;;;;;4490023;31;20099;-72
2022/11/06 13:19:18;;;;;;;;;;;21.30;66.00;;;;;;4492530;31;19984;-70
2022/11/06 13:21:50;;;;;;;;;;;21.30;66.10;;;;;;4492515;32;19965;-71
2022/11/06 13:24:24;;;;;;;;;;;21.30;66.10;;;;;;4492250;32;20054;-70
2022/11/06 13:26:58;;;;;;;;;;;21.30;66.10;;;;;;4493090;32;19985;-70
2022/11/06 13:29:24;;;;;;;;;;;21.30;66.10;;;;;;4492452;32;19986;-70
2022/11/06 13:31:52;;;;;;;;;;;21.30;66.10;;;;;;4492446;32;19996;-71
2022/11/06 13:34:25;;;;;;;;;;;21.30;66.10;;;;;;4477991;32;20028;-70
2022/11/06 13:36:51;;;;;;;;;;;21.30;66.10;;;;;;4492628;32;19984;-70
2022/11/06 13:39:27;;;;;;;;;;;21.30;66.20;;;;;;4492175;31;19969;-71
2022/11/06 13:41:54;;;;;;;;;;;21.30;66.20;;;;;;4495197;31;19983;-70
2022/11/06 13:44:21;;;;;;;;;;;21.20;66.40;;;;;;4495533;31;20411;-70
2022/11/06 13:46:48;;;;;;;;;;;21.20;66.40;;;;;;4495073;31;19978;-70
2022/11/06 13:49:13;;;;;;;;;;;21.10;66.50;;;;;;4495258;31;20148;-71
2022/11/06 13:51:48;;;;;;;;;;;21.00;66.70;;;;;;4495390;31;20416;-70
2022/11/06 13:54:14;;;;;;;;;;;21.00;66.90;;;;;;4480967;31;19985;-70
2022/11/06 13:56:45;;;;;;;;;;;20.90;67.00;;;;;;4495268;31;20020;-70
2022/11/06 13:59:33;;;;;;;;;;;20.80;67.30;;;;;;4496161;31;20302;-70
2022/11/06 14:02:08;;;;;;;;;;;20.80;67.50;;;;;;4495319;31;20068;-70
2022/11/06 14:04:37;;;;;;;;;;;20.70;67.70;;;;;;4495209;31;20039;-70
2022/11/06 14:07:04;;;;;;;;;;;20.70;67.90;;;;;;4495052;31;19970;-70
2022/11/06 14:09:32;;;;;;;;;;;20.60;68.00;;;;;;4494852;31;19988;-70
2022/11/06 14:12:00;;;;;;;;;;;20.50;68.10;;;;;;4480860;31;20330;-70
2022/11/06 14:14:28;;;;;;;;;;;20.50;68.30;;;;;;4495097;31;19978;-70
2022/11/06 14:17:12;;;;;;;;;;;20.40;68.40;;;;;;4495199;31;20039;-70
2022/11/06 14:19:39;;;;;;;;;;;20.40;68.60;;;;;;4494965;31;19974;-70
2022/11/06 14:22:08;;;;;;;;;;;20.30;68.70;;;;;;4494906;31;19977;-71
2022/11/06 14:24:33;;;;;;;;;;;20.30;68.90;;;;;;4494648;31;19988;-74
2022/11/06 14:27:05;;;;;;;;;;;20.20;69.90;;;;;;4494657;31;20005;-70
2022/11/06 14:29:34;;;;;;;;;;;20.20;69.20;;;;;;4494773;31;20032;-67
2022/11/06 14:31:59;;;;;;;;;;;20.10;69.30;;;;;;4494632;31;20611;-70
2022/11/06 14:34:26;;;;;;;;;;;20.10;69.60;;;;;;4494974;31;20091;-70
2022/11/06 14:36:52;;;;;;;;;;;20.00;69.60;;;;;;4494881;31;20404;-70
2022/11/06 14:39:37;;;;;;;;;;;20.00;69.70;;;;;;4494808;31;19981;-69